sensor_id;sensor_type;location;lat;lon;timestamp;P1;durP1;ratioP1;P2;durP2;ratioP2
8230;SDS011;4156;50.908;6.974;2022-12-20T00:01:10;2.30;;;1.90;;
8230;SDS011;4156;50.908;6.974;2022-12-20T00:03:38;4.00;;;2.40;;
8230;SDS011;4156;50.908;6.974;2022-12-20T00:06:04;4.57;;;2.57;;
8230;SDS011;4156;50.908;6.974;2022-12-20T00:08:29;3.60;;;2.30;;
8230;SDS011;4156;50.908;6.974;2022-12-20T00:10:55;4.73;;;1.83;;
8230;SDS011;4156;50.908;6.974;2022-12-20T00:13:23;2.83;;;2.17;;
8230;SDS011;4156;50.908;6.974;2022-12-20T00:15:49;3.77;;;2.10;;
8230;SDS011;4156;50.908;6.974;2022-12-20T00:18:14;3.60;;;2.20;;
8230;SDS011;4156;50.908;6.974;2022-12-20T00:20:40;3.17;;;2.30;;
8230;SDS011;4156;50.908;6.974;2022-12-20T00:23:05;2.70;;;2.30;;
8230;SDS011;4156;50.908;6.974;2022-12-20T00:25:31;2.50;;;2.30;;
8230;SDS011;4156;50.908;6.974;2022-12-20T00:27:56;2.70;;;1.97;;
8230;SDS011;4156;50.908;6.974;2022-12-20T00:30:22;2.83;;;2.20;;
8230;SDS011;4156;50.908;6.974;2022-12-20T00:32:47;2.67;;;2.30;;
8230;SDS011;4156;50.908;6.974;2022-12-20T00:35:13;2.80;;;2.37;;
8230;SDS011;4156;50.908;6.974;2022-12-20T00:37:38;3.07;;;2.27;;
8230;SDS011;4156;50.908;6.974;2022-12-20T00:40:04;3.57;;;2.70;;
8230;SDS011;4156;50.908;6.974;2022-12-20T00:42:30;3.93;;;2.50;;
8230;SDS011;4156;50.908;6.974;2022-12-20T00:44:57;5.13;;;2.37;;
8230;SDS011;4156;50.908;6.974;2022-12-20T00:47:22;2.27;;;2.07;;
8230;SDS011;4156;50.908;6.974;2022-12-20T00:49:48;2.73;;;2.20;;
8230;SDS011;4156;50.908;6.974;2022-12-20T00:52:13;4.53;;;2.80;;
8230;SDS011;4156;50.908;6.974;2022-12-20T00:54:39;3.97;;;2.60;;
8230;SDS011;4156;50.908;6.974;2022-12-20T00:57:04;2.63;;;2.43;;
8230;SDS011;4156;50.908;6.974;2022-12-20T00:59:30;2.90;;;2.37;;
8230;SDS011;4156;50.908;6.974;2022-12-20T01:01:57;3.03;;;2.60;;
8230;SDS011;4156;50.908;6.974;2022-12-20T01:04:23;3.03;;;2.63;;
8230;SDS011;4156;50.908;6.974;2022-12-20T01:06:48;3.20;;;2.60;;
8230;SDS011;4156;50.908;6.974;2022-12-20T01:09:14;5.23;;;2.40;;
8230;SDS011;4156;50.908;6.974;2022-12-20T01:11:39;3.67;;;2.50;;
8230;SDS011;4156;50.908;6.974;2022-12-20T01:14:15;3.60;;;2.37;;
8230;SDS011;4156;50.908;6.974;2022-12-20T01:16:42;3.33;;;2.30;;
8230;SDS011;4156;50.908;6.974;2022-12-20T01:19:10;2.50;;;2.00;;
8230;SDS011;4156;50.908;6.974;2022-12-20T01:21:37;5.33;;;2.10;;
8230;SDS011;4156;50.908;6.974;2022-12-20T01:24:12;3.10;;;2.00;;
8230;SDS011;4156;50.908;6.974;2022-12-20T01:26:38;4.57;;;3.13;;
8230;SDS011;4156;50.908;6.974;2022-12-20T01:29:04;3.53;;;2.00;;
8230;SDS011;4156;50.908;6.974;2022-12-20T01:31:30;3.20;;;2.20;;
8230;SDS011;4156;50.908;6.974;2022-12-20T01:33:56;3.57;;;2.30;;
8230;SDS011;4156;50.908;6.974;2022-12-20T01:36:22;2.83;;;2.10;;
8230;SDS011;4156;50.908;6.974;2022-12-20T01:39:01;3.80;;;2.00;;
8230;SDS011;4156;50.908;6.974;2022-12-20T01:41:27;3.33;;;2.10;;
8230;SDS011;4156;50.908;6.974;2022-12-20T01:43:59;2.20;;;2.00;;
8230;SDS011;4156;50.908;6.974;2022-12-20T01:46:27;3.80;;;2.30;;
8230;SDS011;4156;50.908;6.974;2022-12-20T01:48:58;2.77;;;2.23;;
8230;SDS011;4156;50.908;6.974;2022-12-20T01:51:26;3.40;;;2.87;;
8230;SDS011;4156;50.908;6.974;2022-12-20T01:53:56;2.97;;;2.47;;
8230;SDS011;4156;50.908;6.974;2022-12-20T01:56:26;3.03;;;2.00;;
8230;SDS011;4156;50.908;6.974;2022-12-20T01:58:52;4.13;;;2.50;;
8230;SDS011;4156;50.908;6.974;2022-12-20T02:01:21;4.17;;;2.30;;
8230;SDS011;4156;50.908;6.974;2022-12-20T02:03:48;3.40;;;2.27;;
8230;SDS011;4156;50.908;6.974;2022-12-20T02:06:16;2.47;;;2.27;;
8230;SDS011;4156;50.908;6.974;2022-12-20T02:08:44;3.53;;;2.40;;
8230;SDS011;4156;50.908;6.974;2022-12-20T02:14:13;2.60;;;2.30;;
8230;SDS011;4156;50.908;6.974;2022-12-20T02:30:17;3.73;;;2.50;;
8230;SDS011;4156;50.908;6.974;2022-12-20T02:32:50;3.23;;;2.30;;
8230;SDS011;4156;50.908;6.974;2022-12-20T02:35:19;2.87;;;2.33;;
8230;SDS011;4156;50.908;6.974;2022-12-20T02:37:48;3.27;;;2.50;;
8230;SDS011;4156;50.908;6.974;2022-12-20T02:40:16;3.57;;;2.77;;
8230;SDS011;4156;50.908;6.974;2022-12-20T02:42:47;4.13;;;2.67;;
8230;SDS011;4156;50.908;6.974;2022-12-20T02:45:14;4.43;;;2.63;;
8230;SDS011;4156;50.908;6.974;2022-12-20T02:47:47;3.17;;;2.40;;
8230;SDS011;4156;50.908;6.974;2022-12-20T02:50:17;2.70;;;2.23;;
8230;SDS011;4156;50.908;6.974;2022-12-20T02:52:50;4.77;;;3.00;;
8230;SDS011;4156;50.908;6.974;2022-12-20T02:55:17;2.83;;;2.07;;
8230;SDS011;4156;50.908;6.974;2022-12-20T02:57:54;4.67;;;2.53;;
8230;SDS011;4156;50.908;6.974;2022-12-20T03:00:37;3.60;;;2.80;;
8230;SDS011;4156;50.908;6.974;2022-12-20T03:03:06;3.70;;;2.80;;
8230;SDS011;4156;50.908;6.974;2022-12-20T03:05:49;3.97;;;2.57;;
8230;SDS011;4156;50.908;6.974;2022-12-20T03:08:17;3.27;;;2.17;;
8230;SDS011;4156;50.908;6.974;2022-12-20T03:10:44;3.60;;;2.43;;
8230;SDS011;4156;50.908;6.974;2022-12-20T03:13:09;4.23;;;2.80;;
8230;SDS011;4156;50.908;6.974;2022-12-20T03:15:35;3.87;;;2.77;;
8230;SDS011;4156;50.908;6.974;2022-12-20T03:18:01;3.67;;;2.90;;
8230;SDS011;4156;50.908;6.974;2022-12-20T03:20:26;4.43;;;2.53;;
8230;SDS011;4156;50.908;6.974;2022-12-20T03:22:52;4.47;;;2.80;;
8230;SDS011;4156;50.908;6.974;2022-12-20T03:25:18;5.07;;;3.10;;
8230;SDS011;4156;50.908;6.974;2022-12-20T03:27:44;4.13;;;2.67;;
8230;SDS011;4156;50.908;6.974;2022-12-20T03:30:09;3.80;;;3.23;;
8230;SDS011;4156;50.908;6.974;2022-12-20T03:32:35;4.07;;;2.93;;
8230;SDS011;4156;50.908;6.974;2022-12-20T03:35:01;4.87;;;2.87;;
8230;SDS011;4156;50.908;6.974;2022-12-20T03:37:27;3.70;;;2.87;;
8230;SDS011;4156;50.908;6.974;2022-12-20T03:39:53;3.63;;;2.80;;
8230;SDS011;4156;50.908;6.974;2022-12-20T03:42:19;3.00;;;2.50;;
8230;SDS011;4156;50.908;6.974;2022-12-20T03:44:44;5.87;;;2.73;;
8230;SDS011;4156;50.908;6.974;2022-12-20T03:47:09;5.07;;;2.63;;
8230;SDS011;4156;50.908;6.974;2022-12-20T03:49:35;5.43;;;3.03;;
8230;SDS011;4156;50.908;6.974;2022-12-20T03:52:00;3.53;;;2.40;;
8230;SDS011;4156;50.908;6.974;2022-12-20T03:54:26;3.53;;;2.57;;
8230;SDS011;4156;50.908;6.974;2022-12-20T03:56:51;3.37;;;2.20;;
8230;SDS011;4156;50.908;6.974;2022-12-20T03:59:17;3.77;;;2.70;;
8230;SDS011;4156;50.908;6.974;2022-12-20T04:01:43;2.63;;;2.33;;
8230;SDS011;4156;50.908;6.974;2022-12-20T04:04:09;3.57;;;2.30;;
8230;SDS011;4156;50.908;6.974;2022-12-20T04:06:36;3.23;;;2.33;;
8230;SDS011;4156;50.908;6.974;2022-12-20T04:09:02;3.80;;;2.53;;
8230;SDS011;4156;50.908;6.974;2022-12-20T04:11:27;4.00;;;2.50;;
8230;SDS011;4156;50.908;6.974;2022-12-20T04:13:53;3.97;;;2.57;;
8230;SDS011;4156;50.908;6.974;2022-12-20T04:16:19;5.77;;;2.50;;
8230;SDS011;4156;50.908;6.974;2022-12-20T04:18:46;4.90;;;2.40;;
8230;SDS011;4156;50.908;6.974;2022-12-20T04:21:12;4.93;;;2.67;;
8230;SDS011;4156;50.908;6.974;2022-12-20T04:23:38;4.40;;;2.60;;
8230;SDS011;4156;50.908;6.974;2022-12-20T04:26:06;3.30;;;2.40;;
8230;SDS011;4156;50.908;6.974;2022-12-20T04:28:33;5.73;;;2.80;;
8230;SDS011;4156;50.908;6.974;2022-12-20T04:30:59;3.17;;;2.53;;
8230;SDS011;4156;50.908;6.974;2022-12-20T04:33:25;3.00;;;2.37;;
8230;SDS011;4156;50.908;6.974;2022-12-20T04:35:51;4.97;;;2.83;;
8230;SDS011;4156;50.908;6.974;2022-12-20T04:38:18;4.30;;;2.90;;
8230;SDS011;4156;50.908;6.974;2022-12-20T04:40:45;3.90;;;2.80;;
8230;SDS011;4156;50.908;6.974;2022-12-20T04:43:14;5.17;;;2.80;;
8230;SDS011;4156;50.908;6.974;2022-12-20T04:45:39;2.80;;;2.30;;
8230;SDS011;4156;50.908;6.974;2022-12-20T04:48:05;6.13;;;3.30;;
8230;SDS011;4156;50.908;6.974;2022-12-20T04:50:30;3.40;;;2.53;;
8230;SDS011;4156;50.908;6.974;2022-12-20T04:52:56;3.90;;;2.70;;
8230;SDS011;4156;50.908;6.974;2022-12-20T04:55:40;4.23;;;2.60;;
8230;SDS011;4156;50.908;6.974;2022-12-20T04:58:06;5.57;;;3.03;;
8230;SDS011;4156;50.908;6.974;2022-12-20T05:00:32;3.63;;;2.73;;
8230;SDS011;4156;50.908;6.974;2022-12-20T05:02:58;3.23;;;2.77;;
8230;SDS011;4156;50.908;6.974;2022-12-20T05:05:24;3.67;;;2.87;;
8230;SDS011;4156;50.908;6.974;2022-12-20T05:07:50;3.53;;;2.33;;
8230;SDS011;4156;50.908;6.974;2022-12-20T05:10:16;3.97;;;2.57;;
8230;SDS011;4156;50.908;6.974;2022-12-20T05:12:42;5.90;;;3.13;;
8230;SDS011;4156;50.908;6.974;2022-12-20T05:15:08;6.83;;;3.00;;
8230;SDS011;4156;50.908;6.974;2022-12-20T05:17:34;3.83;;;2.60;;
8230;SDS011;4156;50.908;6.974;2022-12-20T05:20:00;3.60;;;2.60;;
8230;SDS011;4156;50.908;6.974;2022-12-20T05:22:25;3.43;;;2.70;;
8230;SDS011;4156;50.908;6.974;2022-12-20T05:25:10;3.00;;;2.43;;
8230;SDS011;4156;50.908;6.974;2022-12-20T05:27:54;5.97;;;3.00;;
8230;SDS011;4156;50.908;6.974;2022-12-20T05:30:20;6.93;;;2.60;;
8230;SDS011;4156;50.908;6.974;2022-12-20T05:32:46;8.27;;;3.87;;
8230;SDS011;4156;50.908;6.974;2022-12-20T05:35:11;3.37;;;2.70;;
8230;SDS011;4156;50.908;6.974;2022-12-20T05:37:37;2.63;;;2.43;;
8230;SDS011;4156;50.908;6.974;2022-12-20T05:40:03;5.73;;;3.90;;
8230;SDS011;4156;50.908;6.974;2022-12-20T05:42:29;3.83;;;2.60;;
8230;SDS011;4156;50.908;6.974;2022-12-20T05:44:54;4.03;;;2.67;;
8230;SDS011;4156;50.908;6.974;2022-12-20T05:47:20;3.77;;;3.17;;
8230;SDS011;4156;50.908;6.974;2022-12-20T05:49:45;7.37;;;2.90;;
8230;SDS011;4156;50.908;6.974;2022-12-20T05:52:11;7.43;;;3.37;;
8230;SDS011;4156;50.908;6.974;2022-12-20T05:54:37;3.50;;;2.60;;
8230;SDS011;4156;50.908;6.974;2022-12-20T05:57:02;4.00;;;2.80;;
8230;SDS011;4156;50.908;6.974;2022-12-20T05:59:28;3.53;;;2.90;;
8230;SDS011;4156;50.908;6.974;2022-12-20T06:01:53;4.63;;;2.80;;
8230;SDS011;4156;50.908;6.974;2022-12-20T06:04:19;5.70;;;3.13;;
8230;SDS011;4156;50.908;6.974;2022-12-20T06:06:44;5.50;;;2.53;;
8230;SDS011;4156;50.908;6.974;2022-12-20T06:09:10;4.67;;;3.00;;
8230;SDS011;4156;50.908;6.974;2022-12-20T06:11:36;4.70;;;2.80;;
8230;SDS011;4156;50.908;6.974;2022-12-20T06:14:01;4.43;;;2.90;;
8230;SDS011;4156;50.908;6.974;2022-12-20T06:16:27;3.47;;;2.70;;
8230;SDS011;4156;50.908;6.974;2022-12-20T06:18:53;5.87;;;2.80;;
8230;SDS011;4156;50.908;6.974;2022-12-20T06:21:18;3.50;;;2.80;;
8230;SDS011;4156;50.908;6.974;2022-12-20T06:23:44;5.73;;;2.70;;
8230;SDS011;4156;50.908;6.974;2022-12-20T06:26:09;4.13;;;2.90;;
8230;SDS011;4156;50.908;6.974;2022-12-20T06:28:35;5.13;;;2.70;;
8230;SDS011;4156;50.908;6.974;2022-12-20T06:31:06;3.10;;;2.43;;
8230;SDS011;4156;50.908;6.974;2022-12-20T06:33:33;5.00;;;3.37;;
8230;SDS011;4156;50.908;6.974;2022-12-20T06:35:59;3.93;;;2.90;;
8230;SDS011;4156;50.908;6.974;2022-12-20T06:38:24;3.47;;;2.80;;
8230;SDS011;4156;50.908;6.974;2022-12-20T06:40:49;7.50;;;3.00;;
8230;SDS011;4156;50.908;6.974;2022-12-20T06:43:15;5.60;;;3.00;;
8230;SDS011;4156;50.908;6.974;2022-12-20T06:45:41;4.00;;;3.17;;
8230;SDS011;4156;50.908;6.974;2022-12-20T06:48:07;4.77;;;2.83;;
8230;SDS011;4156;50.908;6.974;2022-12-20T06:50:32;3.40;;;2.63;;
8230;SDS011;4156;50.908;6.974;2022-12-20T06:52:58;4.17;;;2.73;;
8230;SDS011;4156;50.908;6.974;2022-12-20T06:55:23;5.70;;;3.20;;
8230;SDS011;4156;50.908;6.974;2022-12-20T06:57:49;4.43;;;2.90;;
8230;SDS011;4156;50.908;6.974;2022-12-20T07:00:15;5.57;;;3.10;;
8230;SDS011;4156;50.908;6.974;2022-12-20T07:02:41;4.03;;;3.00;;
8230;SDS011;4156;50.908;6.974;2022-12-20T07:05:06;4.00;;;2.93;;
8230;SDS011;4156;50.908;6.974;2022-12-20T07:07:32;4.33;;;2.50;;
8230;SDS011;4156;50.908;6.974;2022-12-20T07:09:58;6.93;;;3.10;;
8230;SDS011;4156;50.908;6.974;2022-12-20T07:12:23;3.23;;;2.90;;
8230;SDS011;4156;50.908;6.974;2022-12-20T07:14:49;7.50;;;3.37;;
8230;SDS011;4156;50.908;6.974;2022-12-20T07:17:15;3.97;;;2.70;;
8230;SDS011;4156;50.908;6.974;2022-12-20T07:19:41;5.23;;;3.73;;
8230;SDS011;4156;50.908;6.974;2022-12-20T07:22:07;4.00;;;2.83;;
8230;SDS011;4156;50.908;6.974;2022-12-20T07:24:32;5.03;;;3.63;;
8230;SDS011;4156;50.908;6.974;2022-12-20T07:26:59;5.70;;;3.50;;
8230;SDS011;4156;50.908;6.974;2022-12-20T07:29:25;4.83;;;3.40;;
8230;SDS011;4156;50.908;6.974;2022-12-20T07:31:50;6.17;;;3.07;;
8230;SDS011;4156;50.908;6.974;2022-12-20T07:34:16;4.10;;;3.03;;
8230;SDS011;4156;50.908;6.974;2022-12-20T07:36:43;5.43;;;3.00;;
8230;SDS011;4156;50.908;6.974;2022-12-20T07:39:09;4.47;;;3.23;;
8230;SDS011;4156;50.908;6.974;2022-12-20T07:41:34;3.53;;;2.80;;
8230;SDS011;4156;50.908;6.974;2022-12-20T07:44:00;8.07;;;3.97;;
8230;SDS011;4156;50.908;6.974;2022-12-20T07:46:26;3.73;;;2.87;;
8230;SDS011;4156;50.908;6.974;2022-12-20T07:48:51;4.47;;;3.07;;
8230;SDS011;4156;50.908;6.974;2022-12-20T07:51:21;4.70;;;3.20;;
8230;SDS011;4156;50.908;6.974;2022-12-20T07:53:51;5.53;;;3.13;;
8230;SDS011;4156;50.908;6.974;2022-12-20T07:56:22;5.37;;;2.60;;
8230;SDS011;4156;50.908;6.974;2022-12-20T07:58:50;4.17;;;3.07;;
8230;SDS011;4156;50.908;6.974;2022-12-20T08:01:17;5.47;;;3.10;;
8230;SDS011;4156;50.908;6.974;2022-12-20T08:03:46;6.93;;;3.07;;
8230;SDS011;4156;50.908;6.974;2022-12-20T08:06:14;3.30;;;2.60;;
8230;SDS011;4156;50.908;6.974;2022-12-20T08:08:44;5.07;;;2.83;;
8230;SDS011;4156;50.908;6.974;2022-12-20T08:11:12;4.33;;;2.83;;
8230;SDS011;4156;50.908;6.974;2022-12-20T08:13:38;4.90;;;2.80;;
8230;SDS011;4156;50.908;6.974;2022-12-20T08:16:04;4.17;;;2.90;;
8230;SDS011;4156;50.908;6.974;2022-12-20T08:18:30;4.10;;;2.73;;
8230;SDS011;4156;50.908;6.974;2022-12-20T08:20:56;4.90;;;2.77;;
8230;SDS011;4156;50.908;6.974;2022-12-20T08:23:21;5.43;;;2.73;;
8230;SDS011;4156;50.908;6.974;2022-12-20T08:25:47;3.40;;;2.43;;
8230;SDS011;4156;50.908;6.974;2022-12-20T08:28:12;3.83;;;2.50;;
8230;SDS011;4156;50.908;6.974;2022-12-20T08:30:38;4.93;;;3.00;;
8230;SDS011;4156;50.908;6.974;2022-12-20T08:33:03;6.23;;;2.60;;
8230;SDS011;4156;50.908;6.974;2022-12-20T08:35:29;3.37;;;2.40;;
8230;SDS011;4156;50.908;6.974;2022-12-20T08:37:55;3.83;;;2.50;;
8230;SDS011;4156;50.908;6.974;2022-12-20T08:40:20;3.23;;;2.50;;
8230;SDS011;4156;50.908;6.974;2022-12-20T08:42:46;3.73;;;2.43;;
8230;SDS011;4156;50.908;6.974;2022-12-20T08:45:12;3.60;;;2.70;;
8230;SDS011;4156;50.908;6.974;2022-12-20T08:47:38;4.00;;;2.60;;
8230;SDS011;4156;50.908;6.974;2022-12-20T08:50:03;5.33;;;3.60;;
8230;SDS011;4156;50.908;6.974;2022-12-20T08:52:29;3.77;;;2.63;;
8230;SDS011;4156;50.908;6.974;2022-12-20T08:54:55;3.50;;;2.20;;
8230;SDS011;4156;50.908;6.974;2022-12-20T08:57:20;3.80;;;2.60;;
8230;SDS011;4156;50.908;6.974;2022-12-20T08:59:46;3.07;;;2.47;;
8230;SDS011;4156;50.908;6.974;2022-12-20T09:02:12;3.80;;;2.60;;
8230;SDS011;4156;50.908;6.974;2022-12-20T09:04:37;3.80;;;2.60;;
8230;SDS011;4156;50.908;6.974;2022-12-20T09:07:03;4.23;;;2.50;;
8230;SDS011;4156;50.908;6.974;2022-12-20T09:09:28;2.70;;;2.30;;
8230;SDS011;4156;50.908;6.974;2022-12-20T09:11:54;3.53;;;2.70;;
8230;SDS011;4156;50.908;6.974;2022-12-20T09:14:19;3.13;;;2.63;;
8230;SDS011;4156;50.908;6.974;2022-12-20T09:16:45;3.20;;;2.33;;
8230;SDS011;4156;50.908;6.974;2022-12-20T09:19:12;4.23;;;2.80;;
8230;SDS011;4156;50.908;6.974;2022-12-20T09:21:38;3.97;;;2.70;;
8230;SDS011;4156;50.908;6.974;2022-12-20T09:24:04;3.50;;;2.70;;
8230;SDS011;4156;50.908;6.974;2022-12-20T09:26:30;4.70;;;2.80;;
8230;SDS011;4156;50.908;6.974;2022-12-20T09:28:56;6.07;;;3.17;;
8230;SDS011;4156;50.908;6.974;2022-12-20T09:31:24;4.63;;;2.60;;
8230;SDS011;4156;50.908;6.974;2022-12-20T09:33:54;3.07;;;2.53;;
8230;SDS011;4156;50.908;6.974;2022-12-20T09:36:21;3.53;;;2.77;;
8230;SDS011;4156;50.908;6.974;2022-12-20T09:38:48;5.63;;;2.73;;
8230;SDS011;4156;50.908;6.974;2022-12-20T09:43:59;2.67;;;2.20;;
8230;SDS011;4156;50.908;6.974;2022-12-20T09:46:29;3.00;;;2.47;;
8230;SDS011;4156;50.908;6.974;2022-12-20T09:48:55;6.13;;;2.53;;
8230;SDS011;4156;50.908;6.974;2022-12-20T09:54:18;2.50;;;2.27;;
8230;SDS011;4156;50.908;6.974;2022-12-20T09:56:46;3.20;;;2.50;;
8230;SDS011;4156;50.908;6.974;2022-12-20T09:59:22;3.27;;;2.33;;
8230;SDS011;4156;50.908;6.974;2022-12-20T10:01:48;3.47;;;2.50;;
8230;SDS011;4156;50.908;6.974;2022-12-20T10:04:18;4.57;;;2.53;;
8230;SDS011;4156;50.908;6.974;2022-12-20T10:09:56;5.27;;;2.70;;
8230;SDS011;4156;50.908;6.974;2022-12-20T10:25:45;3.77;;;2.83;;
8230;SDS011;4156;50.908;6.974;2022-12-20T10:28:25;4.37;;;2.93;;
8230;SDS011;4156;50.908;6.974;2022-12-20T10:31:40;6.20;;;3.33;;
8230;SDS011;4156;50.908;6.974;2022-12-20T10:34:10;3.33;;;2.60;;
8230;SDS011;4156;50.908;6.974;2022-12-20T10:36:41;3.60;;;2.50;;
8230;SDS011;4156;50.908;6.974;2022-12-20T10:39:25;4.20;;;2.50;;
8230;SDS011;4156;50.908;6.974;2022-12-20T10:42:21;2.30;;;2.10;;
8230;SDS011;4156;50.908;6.974;2022-12-20T10:45:26;3.80;;;2.77;;
8230;SDS011;4156;50.908;6.974;2022-12-20T10:48:40;2.77;;;2.20;;
8230;SDS011;4156;50.908;6.974;2022-12-20T10:52:02;3.17;;;2.40;;
8230;SDS011;4156;50.908;6.974;2022-12-20T10:54:46;3.87;;;2.40;;
8230;SDS011;4156;50.908;6.974;2022-12-20T10:57:22;6.50;;;2.90;;
8230;SDS011;4156;50.908;6.974;2022-12-20T11:00:44;4.53;;;2.90;;
8230;SDS011;4156;50.908;6.974;2022-12-20T11:12:42;3.20;;;2.50;;
8230;SDS011;4156;50.908;6.974;2022-12-20T11:15:32;4.63;;;2.60;;
8230;SDS011;4156;50.908;6.974;2022-12-20T11:18:28;3.80;;;2.97;;
8230;SDS011;4156;50.908;6.974;2022-12-20T11:21:56;3.93;;;2.53;;
8230;SDS011;4156;50.908;6.974;2022-12-20T11:27:54;3.77;;;2.77;;
8230;SDS011;4156;50.908;6.974;2022-12-20T12:10:59;3.40;;;2.60;;
8230;SDS011;4156;50.908;6.974;2022-12-20T12:46:08;4.10;;;2.47;;
8230;SDS011;4156;50.908;6.974;2022-12-20T13:43:35;5.33;;;3.30;;
8230;SDS011;4156;50.908;6.974;2022-12-20T15:32:13;3.27;;;2.00;;
8230;SDS011;4156;50.908;6.974;2022-12-20T15:34:43;3.27;;;2.17;;
8230;SDS011;4156;50.908;6.974;2022-12-20T15:37:09;5.60;;;2.40;;
8230;SDS011;4156;50.908;6.974;2022-12-20T15:39:39;5.37;;;2.50;;
8230;SDS011;4156;50.908;6.974;2022-12-20T15:42:05;4.10;;;2.47;;
8230;SDS011;4156;50.908;6.974;2022-12-20T15:44:30;5.77;;;2.80;;
8230;SDS011;4156;50.908;6.974;2022-12-20T15:46:57;6.30;;;3.30;;
8230;SDS011;4156;50.908;6.974;2022-12-20T15:49:24;3.37;;;2.07;;
8230;SDS011;4156;50.908;6.974;2022-12-20T15:51:53;7.57;;;2.33;;
8230;SDS011;4156;50.908;6.974;2022-12-20T15:54:23;2.70;;;2.13;;
8230;SDS011;4156;50.908;6.974;2022-12-20T15:56:51;5.93;;;2.87;;
8230;SDS011;4156;50.908;6.974;2022-12-20T15:59:21;4.30;;;2.50;;
8230;SDS011;4156;50.908;6.974;2022-12-20T16:01:47;6.17;;;2.57;;
8230;SDS011;4156;50.908;6.974;2022-12-20T16:04:14;3.10;;;2.30;;
8230;SDS011;4156;50.908;6.974;2022-12-20T16:06:41;2.60;;;2.33;;
8230;SDS011;4156;50.908;6.974;2022-12-20T16:09:08;3.60;;;2.10;;
8230;SDS011;4156;50.908;6.974;2022-12-20T16:11:34;7.40;;;2.37;;
8230;SDS011;4156;50.908;6.974;2022-12-20T16:14:00;6.37;;;2.37;;
8230;SDS011;4156;50.908;6.974;2022-12-20T16:16:27;3.67;;;2.70;;
8230;SDS011;4156;50.908;6.974;2022-12-20T16:18:55;2.77;;;2.30;;
8230;SDS011;4156;50.908;6.974;2022-12-20T16:21:23;3.60;;;2.43;;
8230;SDS011;4156;50.908;6.974;2022-12-20T16:23:54;5.10;;;2.70;;
8230;SDS011;4156;50.908;6.974;2022-12-20T16:26:21;2.50;;;2.20;;
8230;SDS011;4156;50.908;6.974;2022-12-20T16:28:47;5.50;;;2.40;;
8230;SDS011;4156;50.908;6.974;2022-12-20T16:33:52;4.10;;;2.00;;
8230;SDS011;4156;50.908;6.974;2022-12-20T16:36:19;3.30;;;2.43;;
8230;SDS011;4156;50.908;6.974;2022-12-20T16:38:45;2.60;;;2.10;;
8230;SDS011;4156;50.908;6.974;2022-12-20T16:43:39;4.67;;;2.37;;
8230;SDS011;4156;50.908;6.974;2022-12-20T16:46:05;2.57;;;2.10;;
8230;SDS011;4156;50.908;6.974;2022-12-20T16:48:30;3.83;;;2.03;;
8230;SDS011;4156;50.908;6.974;2022-12-20T16:50:56;4.47;;;2.43;;
8230;SDS011;4156;50.908;6.974;2022-12-20T16:53:21;4.50;;;2.60;;
8230;SDS011;4156;50.908;6.974;2022-12-20T16:55:47;3.47;;;2.17;;
8230;SDS011;4156;50.908;6.974;2022-12-20T16:58:12;4.30;;;2.37;;
8230;SDS011;4156;50.908;6.974;2022-12-20T17:00:38;4.80;;;2.40;;
8230;SDS011;4156;50.908;6.974;2022-12-20T17:03:04;4.67;;;3.00;;
8230;SDS011;4156;50.908;6.974;2022-12-20T17:05:31;3.70;;;2.50;;
8230;SDS011;4156;50.908;6.974;2022-12-20T17:07:59;3.23;;;2.40;;
8230;SDS011;4156;50.908;6.974;2022-12-20T17:10:25;3.93;;;2.20;;
8230;SDS011;4156;50.908;6.974;2022-12-20T17:12:51;4.77;;;2.17;;
8230;SDS011;4156;50.908;6.974;2022-12-20T17:15:38;4.00;;;2.20;;
8230;SDS011;4156;50.908;6.974;2022-12-20T17:18:04;4.47;;;2.20;;
8230;SDS011;4156;50.908;6.974;2022-12-20T17:20:29;2.90;;;2.20;;
8230;SDS011;4156;50.908;6.974;2022-12-20T17:22:55;3.10;;;2.30;;
8230;SDS011;4156;50.908;6.974;2022-12-20T17:25:23;2.87;;;2.43;;
8230;SDS011;4156;50.908;6.974;2022-12-20T17:27:54;3.90;;;2.37;;
8230;SDS011;4156;50.908;6.974;2022-12-20T17:30:20;4.43;;;2.50;;
8230;SDS011;4156;50.908;6.974;2022-12-20T17:32:47;4.83;;;2.50;;
8230;SDS011;4156;50.908;6.974;2022-12-20T17:35:18;4.53;;;3.00;;
8230;SDS011;4156;50.908;6.974;2022-12-20T17:37:45;4.60;;;3.17;;
8230;SDS011;4156;50.908;6.974;2022-12-20T17:40:12;5.23;;;3.30;;
8230;SDS011;4156;50.908;6.974;2022-12-20T17:42:38;4.47;;;3.27;;
8230;SDS011;4156;50.908;6.974;2022-12-20T17:45:06;5.37;;;3.60;;
8230;SDS011;4156;50.908;6.974;2022-12-20T17:47:45;6.70;;;3.83;;
8230;SDS011;4156;50.908;6.974;2022-12-20T17:50:11;5.63;;;3.60;;
8230;SDS011;4156;50.908;6.974;2022-12-20T17:52:39;5.93;;;4.03;;
8230;SDS011;4156;50.908;6.974;2022-12-20T17:55:05;5.73;;;3.70;;
8230;SDS011;4156;50.908;6.974;2022-12-20T17:57:31;9.10;;;3.90;;
8230;SDS011;4156;50.908;6.974;2022-12-20T17:59:57;5.57;;;3.50;;
8230;SDS011;4156;50.908;6.974;2022-12-20T18:02:23;5.23;;;3.67;;
8230;SDS011;4156;50.908;6.974;2022-12-20T18:04:49;4.47;;;3.53;;
8230;SDS011;4156;50.908;6.974;2022-12-20T18:07:15;4.87;;;3.50;;
8230;SDS011;4156;50.908;6.974;2022-12-20T18:09:41;6.37;;;3.30;;
8230;SDS011;4156;50.908;6.974;2022-12-20T18:12:07;5.63;;;3.77;;
8230;SDS011;4156;50.908;6.974;2022-12-20T18:14:33;5.90;;;3.30;;
8230;SDS011;4156;50.908;6.974;2022-12-20T18:16:59;5.63;;;3.60;;
8230;SDS011;4156;50.908;6.974;2022-12-20T18:19:24;5.17;;;3.47;;
8230;SDS011;4156;50.908;6.974;2022-12-20T18:21:50;5.47;;;3.70;;
8230;SDS011;4156;50.908;6.974;2022-12-20T18:24:15;6.73;;;3.73;;
8230;SDS011;4156;50.908;6.974;2022-12-20T18:26:41;6.10;;;3.50;;
8230;SDS011;4156;50.908;6.974;2022-12-20T18:29:08;4.60;;;3.27;;
8230;SDS011;4156;50.908;6.974;2022-12-20T18:31:34;3.87;;;3.00;;
8230;SDS011;4156;50.908;6.974;2022-12-20T18:34:00;6.40;;;3.40;;
8230;SDS011;4156;50.908;6.974;2022-12-20T18:36:28;7.20;;;3.60;;
8230;SDS011;4156;50.908;6.974;2022-12-20T18:39:01;3.93;;;3.23;;
8230;SDS011;4156;50.908;6.974;2022-12-20T18:41:29;4.97;;;3.40;;
8230;SDS011;4156;50.908;6.974;2022-12-20T18:43:56;7.17;;;4.30;;
8230;SDS011;4156;50.908;6.974;2022-12-20T18:46:24;6.33;;;3.93;;
8230;SDS011;4156;50.908;6.974;2022-12-20T18:48:50;5.63;;;3.80;;
8230;SDS011;4156;50.908;6.974;2022-12-20T18:51:21;8.13;;;4.73;;
8230;SDS011;4156;50.908;6.974;2022-12-20T18:53:49;8.70;;;4.50;;
8230;SDS011;4156;50.908;6.974;2022-12-20T18:56:16;9.40;;;4.53;;
8230;SDS011;4156;50.908;6.974;2022-12-20T18:58:44;9.27;;;5.10;;
8230;SDS011;4156;50.908;6.974;2022-12-20T19:01:18;9.33;;;4.63;;
8230;SDS011;4156;50.908;6.974;2022-12-20T19:03:45;11.10;;;4.70;;
8230;SDS011;4156;50.908;6.974;2022-12-20T19:06:11;7.70;;;4.10;;
8230;SDS011;4156;50.908;6.974;2022-12-20T19:08:38;7.27;;;4.57;;
8230;SDS011;4156;50.908;6.974;2022-12-20T19:11:05;8.40;;;4.23;;
8230;SDS011;4156;50.908;6.974;2022-12-20T19:13:32;8.70;;;5.10;;
8230;SDS011;4156;50.908;6.974;2022-12-20T19:16:01;18.97;;;8.77;;
8230;SDS011;4156;50.908;6.974;2022-12-20T19:18:28;11.57;;;6.93;;
8230;SDS011;4156;50.908;6.974;2022-12-20T19:20:55;11.20;;;5.80;;
8230;SDS011;4156;50.908;6.974;2022-12-20T19:23:27;7.83;;;5.83;;
8230;SDS011;4156;50.908;6.974;2022-12-20T19:25:53;8.20;;;5.67;;
8230;SDS011;4156;50.908;6.974;2022-12-20T19:28:19;9.80;;;5.40;;
8230;SDS011;4156;50.908;6.974;2022-12-20T19:30:44;7.20;;;5.13;;
8230;SDS011;4156;50.908;6.974;2022-12-20T19:33:10;8.57;;;5.53;;
8230;SDS011;4156;50.908;6.974;2022-12-20T19:35:35;6.93;;;4.77;;
8230;SDS011;4156;50.908;6.974;2022-12-20T19:38:01;7.73;;;4.80;;
8230;SDS011;4156;50.908;6.974;2022-12-20T19:40:26;5.67;;;4.23;;
8230;SDS011;4156;50.908;6.974;2022-12-20T19:42:52;6.13;;;4.43;;
8230;SDS011;4156;50.908;6.974;2022-12-20T19:45:18;5.30;;;4.20;;
8230;SDS011;4156;50.908;6.974;2022-12-20T19:47:43;10.70;;;5.17;;
8230;SDS011;4156;50.908;6.974;2022-12-20T19:50:09;9.20;;;5.43;;
8230;SDS011;4156;50.908;6.974;2022-12-20T19:52:35;8.90;;;4.10;;
8230;SDS011;4156;50.908;6.974;2022-12-20T19:55:01;4.67;;;3.80;;
8230;SDS011;4156;50.908;6.974;2022-12-20T19:57:27;8.17;;;5.07;;
8230;SDS011;4156;50.908;6.974;2022-12-20T19:59:52;11.47;;;5.20;;
8230;SDS011;4156;50.908;6.974;2022-12-20T20:02:18;10.03;;;4.93;;
8230;SDS011;4156;50.908;6.974;2022-12-20T20:04:43;6.33;;;4.30;;
8230;SDS011;4156;50.908;6.974;2022-12-20T20:07:09;8.83;;;4.23;;
8230;SDS011;4156;50.908;6.974;2022-12-20T20:09:35;6.40;;;4.63;;
8230;SDS011;4156;50.908;6.974;2022-12-20T20:12:00;6.03;;;4.00;;